Mount Hulda, Missouri
Current Conditions -  °F | °C
As of 7:53 AM on Saturday 25 Oct 2014 (Local Time) from KDMO Reporting Station
Moderate Fog Moderate Fog  
Wind Chill: 15°   Ceiling: 300
Heat Index: 15°   Visibility: 0.5mi
Dew Point: 14°   Wind: 6mph
Humidity: 93%   Direction: 230°SW
Pressure: 30.05"   Gusts: NA
Location:  38.4446°N, 93.178°W
Report Text: KDMO 251253Z AUTO 23005KT 1/2SM FG VV003 15/14 A3005 RMK AO2 SLP172 T01500139
Loading
Personal Weather Stations






























Interactive Weather Map
Tropical Storm Tracking
New forecast layout! Learn more

10-Day Weather Forecast

Advertisements
Track Severe Weather on mobile